首页
METAR-TAF:

METAR-TAF

机场 :

Friday Harbor Airport

Friday Harbor, 华盛顿, 美国

纬度: 48-31-13N, 经度: 123-01-31W, 海拔: 33米

当前天气观测

该预报发布于1小时和20分钟前的14:53 UTC
风速15节,风向东南,有时为24节阵风
温度 8°C
湿度 87%
气压 1015 hPa
能見度: 8.0公里
阴天层高于1000英尺
小雨, 轻雾

METAR: KFHR 131453Z AUTO 14015G24KT 5SM -RA BR OVC010 08/06 A2997 RMK AO2 SLP149 P0002 60006 T00780061 53005

时间: 08:13 (16:13 UTC)


TAF: 丢失

超过4000个机场的气象观测和天气预报(METAR&TAF报告)。

可查询的气象台以黄色和红色小点在地图上表示。

将鼠标移到小点上方,可查看气象台名称。

然后点击查看天气观测和预报。

如需切换地图:点击带黑十字的绿色按钮放大地图;点击带横线的绿色按钮缩小地图;或者点击绿色箭头查看邻近地区的地图。


METAR-TAF: